Solemar — ZCIR3 — position and weather

sailwx.info

Track history (hours):
 
Tides and Currents Weather Stations Pressure Air Temp Water Temp Dewpoint Dewpoint Depression Visibility Wind Speed Wind Dir Waves Ship Positions

Solemar

Last reported at 2014-Dec-03 07:09 UTC. Time now 2014-Dec-19 07:15 UTC.
Position N 43°04' E 005°43'.
Warning: this ship's position is 16 days out of date.

Length 62 m; draft 3.5 m.

Type: Pleasure craft. MMSI: 319868000.

Date/timePositionNaut miles runAvg speedWind from/ knotsBaromVisibWave heightAir tempDewpointWater temp
2014-Dec-03 07:09N 43°04' E 005°43'610.1
2014-Dec-03 06:32N 43°01' E 005°50'1010.1
2014-Dec-03 05:33N 42°57' E 006°03'3210.6
2014-Dec-03 02:33N 42°57' E 006°47'1210.9
2014-Dec-03 01:29N 43°06' E 006°58'1311.0
2014-Dec-03 00:17N 43°16' E 007°10'810.8
2014-Dec-02 23:33N 43°22' E 007°16'1010.4
2014-Dec-02 22:33N 43°31' E 007°25'1010.1
2014-Dec-02 21:33N 43°41' E 007°25'  
2014-Nov-24 16:19N 43°44' E 007°26'2 0.2
2014-Nov-24 06:24N 43°45' E 007°28'1 1.7
2014-Nov-24 05:33N 43°44' E 007°26'  
Track history (hours):
 
Tides and Currents Weather Stations Pressure Air Temp Water Temp Dewpoint Dewpoint Depression Visibility Wind Speed Wind Dir Waves Ship Positions

Solemar

Last reported at 2014-Dec-03 07:09 UTC. Time now 2014-Dec-19 07:15 UTC.
Position N 43°04' E 005°43'.
Warning: this ship's position is 16 days out of date.

Length 62 m; draft 3.5 m.

Type: Pleasure craft. MMSI: 319868000.

Date/timePositionNaut miles runAvg speedWind from/ knotsBaromVisibWave heightAir tempDewpointWater temp
2014-Dec-03 07:09N 43°04' E 005°43'610.1
2014-Dec-03 06:32N 43°01' E 005°50'1010.1
2014-Dec-03 05:33N 42°57' E 006°03'3210.6
2014-Dec-03 02:33N 42°57' E 006°47'1210.9
2014-Dec-03 01:29N 43°06' E 006°58'1311.0
2014-Dec-03 00:17N 43°16' E 007°10'810.8
2014-Dec-02 23:33N 43°22' E 007°16'1010.4
2014-Dec-02 22:33N 43°31' E 007°25'1010.1
2014-Dec-02 21:33N 43°41' E 007°25'  
2014-Nov-24 16:19N 43°44' E 007°26'2 0.2
2014-Nov-24 06:24N 43°45' E 007°28'1 1.7
2014-Nov-24 05:33N 43°44' E 007°26'  

Dump ship's entire track history